HAV weather

José Martí International Airport
Havana, Ciudad de la Habana, Cuba

Public forecast

Using degrees Celsius for public forecast. Weather courtesy of forecast.io.

METAR (pilot weather report)

Retrieved 2019/04/23 16:55 UTC (48 minutes ago):

MUHA 231655Z 03012KT CAVOK 29/15 Q1018

TAF (pilot weather forecast)

Retrieved 2019/04/23 12:03 UTC (6 hours ago):

TAF MUHA 231100Z 2312/2412 08003KT 9000 FEW035 BECMG 2313/2315 07013KT BECMG 2401/2403 VRB03KT